createdAt,value
2018-09-14T00:02:08.883Z,129.23
2018-09-14T00:04:37.193Z,154.00
2018-09-14T00:07:05.543Z,133.57
2018-09-14T00:09:33.780Z,168.53
2018-09-14T00:12:02.064Z,140.57
2018-09-14T00:14:30.257Z,153.90
2018-09-14T00:16:58.469Z,127.73
2018-09-14T00:19:26.670Z,110.97
2018-09-14T00:21:54.969Z,138.60
2018-09-14T00:24:23.169Z,120.50
2018-09-14T00:26:51.493Z,133.40
2018-09-14T00:29:19.761Z,153.37
2018-09-14T00:31:48.073Z,153.13
2018-09-14T00:34:16.325Z,145.77
2018-09-14T00:36:44.633Z,133.70
2018-09-14T00:39:12.912Z,140.53
2018-09-14T00:41:41.122Z,141.73
2018-09-14T00:44:09.413Z,168.73
2018-09-14T00:46:37.681Z,166.10
2018-09-14T00:49:05.966Z,171.70
2018-09-14T00:51:34.278Z,170.10
2018-09-14T00:54:02.561Z,155.83
2018-09-14T00:56:30.821Z,167.77
2018-09-14T00:58:59.197Z,186.13
2018-09-14T01:01:27.429Z,167.27
2018-09-14T01:03:55.770Z,172.97
2018-09-14T01:06:24.019Z,180.87
2018-09-14T01:08:52.274Z,186.80
2018-09-14T01:11:20.569Z,185.13
2018-09-14T01:13:48.889Z,178.80
2018-09-14T01:16:17.267Z,184.53
2018-09-14T01:18:45.457Z,187.90
2018-09-14T01:21:13.733Z,186.27
2018-09-14T01:23:41.914Z,204.13
2018-09-14T01:26:11.606Z,183.17
2018-09-14T01:28:39.812Z,192.53
2018-09-14T01:31:08.030Z,175.47
2018-09-14T01:33:36.306Z,173.03
2018-09-14T01:36:09.946Z,182.00
2018-09-14T01:38:38.138Z,183.03
2018-09-14T01:41:06.874Z,175.83
2018-09-14T01:43:35.079Z,165.37
2018-09-14T01:46:03.277Z,170.20
2018-09-14T01:48:31.549Z,152.50
2018-09-14T01:50:59.765Z,181.67
2018-09-14T01:53:27.986Z,167.40
2018-09-14T01:55:56.221Z,156.17
2018-09-14T01:58:24.430Z,185.70
2018-09-14T02:00:52.625Z,188.67
2018-09-14T02:03:20.849Z,184.30
2018-09-14T02:05:49.061Z,178.50
2018-09-14T02:08:17.317Z,176.67
2018-09-14T02:10:45.498Z,161.17
2018-09-14T02:13:13.759Z,167.60
2018-09-14T02:15:41.937Z,169.50
2018-09-14T02:18:10.141Z,176.50
2018-09-14T02:20:38.382Z,168.03
2018-09-14T02:23:06.610Z,155.03
2018-09-14T02:25:34.845Z,174.40
2018-09-14T02:28:03.073Z,168.63
2018-09-14T02:30:31.414Z,170.33
2018-09-14T02:32:59.613Z,164.43
2018-09-14T02:35:27.798Z,160.77
2018-09-14T02:37:55.993Z,154.97
2018-09-14T02:40:24.299Z,159.30
2018-09-14T02:42:52.498Z,169.57
2018-09-14T02:45:20.738Z,154.50
2018-09-14T02:47:49.029Z,152.17
2018-09-14T02:50:17.244Z,161.70
2018-09-14T02:52:45.549Z,175.83
2018-09-14T02:55:13.822Z,164.83
2018-09-14T02:57:42.115Z,177.80
2018-09-14T03:00:10.590Z,184.40
2018-09-14T03:02:38.810Z,184.43
2018-09-14T03:05:07.090Z,171.60
2018-09-14T03:07:35.402Z,175.67
2018-09-14T03:10:03.731Z,184.10
2018-09-14T03:12:31.935Z,193.63
2018-09-14T03:15:00.262Z,202.03
2018-09-14T03:17:28.529Z,179.93
2018-09-14T03:19:56.713Z,191.43
2018-09-14T03:22:25.025Z,184.50
2018-09-14T03:24:54.164Z,177.17
2018-09-14T03:27:22.372Z,171.67
2018-09-14T03:29:50.573Z,195.03
2018-09-14T03:32:18.831Z,177.97
2018-09-14T03:34:47.097Z,173.17
2018-09-14T03:37:15.302Z,194.67
2018-09-14T03:39:43.533Z,168.57
2018-09-14T03:42:11.766Z,174.40
2018-09-14T03:44:41.162Z,175.60
2018-09-14T03:47:09.393Z,165.20
2018-09-14T03:49:37.610Z,176.87
2018-09-14T03:52:05.909Z,174.80
2018-09-14T03:54:34.351Z,182.10
2018-09-14T03:57:05.332Z,156.23
2018-09-14T03:59:35.616Z,152.80
2018-09-14T04:02:04.361Z,169.30
2018-09-14T04:04:32.557Z,180.83
2018-09-14T04:07:01.266Z,190.97
2018-09-14T04:09:29.532Z,173.17
2018-09-14T04:11:58.547Z,190.57
2018-09-14T04:14:26.841Z,197.93
2018-09-14T04:16:55.578Z,167.80
2018-09-14T04:19:23.781Z,155.50
2018-09-14T04:21:52.013Z,150.93
2018-09-14T04:24:20.520Z,154.03
2018-09-14T04:26:48.841Z,163.73
2018-09-14T04:29:17.117Z,167.57
2018-09-14T04:31:46.130Z,165.27
2018-09-14T04:34:14.335Z,196.77
2018-09-14T04:36:42.638Z,184.57
2018-09-14T04:39:11.342Z,202.80
2018-09-14T04:41:39.769Z,216.87
2018-09-14T04:44:07.990Z,206.00
2018-09-14T04:46:36.274Z,204.03
2018-09-14T04:49:04.585Z,206.33
2018-09-14T04:51:32.915Z,201.27
2018-09-14T04:54:01.097Z,203.03
2018-09-14T04:56:29.301Z,221.03
2018-09-14T04:58:57.494Z,182.20
2018-09-14T05:01:25.880Z,201.23
2018-09-14T05:03:54.103Z,186.40
2018-09-14T05:06:22.311Z,185.60
2018-09-14T05:08:50.598Z,202.63
2018-09-14T05:11:18.859Z,181.13
2018-09-14T05:13:47.386Z,197.80
2018-09-14T05:16:15.774Z,185.70
2018-09-14T05:18:43.998Z,199.90
2018-09-14T05:21:12.618Z,209.90
2018-09-14T05:23:40.940Z,216.80
2018-09-14T05:26:09.162Z,214.07
2018-09-14T05:28:37.377Z,208.43
2018-09-14T05:31:05.618Z,190.60
2018-09-14T05:33:33.830Z,198.60
2018-09-14T05:36:02.046Z,200.80
2018-09-14T05:38:30.246Z,188.27
2018-09-14T05:40:58.516Z,182.20
2018-09-14T05:43:26.711Z,190.27
2018-09-14T05:45:54.952Z,192.40
2018-09-14T05:48:23.145Z,193.80
2018-09-14T05:50:51.378Z,169.57
2018-09-14T05:53:19.577Z,202.00
2018-09-14T05:55:47.784Z,202.17
2018-09-14T05:58:16.089Z,198.70
2018-09-14T06:00:44.425Z,212.97
2018-09-14T06:03:12.645Z,181.60
2018-09-14T06:05:40.893Z,193.63
2018-09-14T06:08:09.101Z,194.93
2018-09-14T06:10:37.335Z,175.03
2018-09-14T06:13:05.692Z,170.20
2018-09-14T06:15:33.907Z,172.30
2018-09-14T06:18:02.157Z,195.57
2018-09-14T06:20:30.434Z,193.17
2018-09-14T06:22:58.684Z,181.23
2018-09-14T06:25:26.891Z,206.07
2018-09-14T06:27:55.131Z,201.03
2018-09-14T06:30:23.362Z,194.00
2018-09-14T06:32:51.526Z,198.10
2018-09-14T06:35:19.765Z,188.27
2018-09-14T06:37:47.986Z,210.17
2018-09-14T06:40:16.196Z,175.33
2018-09-14T06:42:44.397Z,210.10
2018-09-14T06:45:12.640Z,185.17
2018-09-14T06:47:40.858Z,200.73
2018-09-14T06:50:09.103Z,166.57
2018-09-14T06:52:37.301Z,165.77
2018-09-14T06:55:05.514Z,147.80
2018-09-14T06:57:33.802Z,152.90
2018-09-14T07:00:02.131Z,135.43
2018-09-14T07:02:30.362Z,133.00
2018-09-14T07:04:58.861Z,138.83
2018-09-14T07:07:27.241Z,109.83
2018-09-14T07:09:55.446Z,119.50
2018-09-14T07:12:23.685Z,125.97
2018-09-14T07:14:51.915Z,156.90
2018-09-14T07:17:20.117Z,142.27
2018-09-14T07:19:48.351Z,146.50
2018-09-14T07:22:16.670Z,133.33
2018-09-14T07:24:44.891Z,133.70
2018-09-14T07:27:13.264Z,129.27
2018-09-14T07:29:41.561Z,143.43
2018-09-14T07:32:09.733Z,140.33
2018-09-14T07:34:37.953Z,132.90
2018-09-14T07:37:06.257Z,129.40
2018-09-14T07:39:34.485Z,138.33
2018-09-14T07:42:02.688Z,131.53
2018-09-14T07:44:30.896Z,131.20
2018-09-14T07:46:59.101Z,126.37
2018-09-14T07:49:27.304Z,122.60
2018-09-14T07:51:55.507Z,118.90
2018-09-14T07:54:23.713Z,138.60
2018-09-14T07:56:51.953Z,121.93
2018-09-14T07:59:20.195Z,146.40
2018-09-14T08:01:48.586Z,128.43
2018-09-14T08:04:16.818Z,116.77
2018-09-14T08:06:45.107Z,115.00
2018-09-14T08:09:14.295Z,116.33
2018-09-14T08:11:42.957Z,102.50
2018-09-14T08:14:11.711Z,89.50
2018-09-14T08:16:39.974Z,112.73
2018-09-14T08:19:08.187Z,159.90
2018-09-14T08:21:36.929Z,160.27
2018-09-14T08:24:05.038Z,147.97
2018-09-14T08:26:33.303Z,143.63
2018-09-14T08:29:01.530Z,133.57
2018-09-14T08:31:30.746Z,122.97
2018-09-14T08:33:58.942Z,147.73
2018-09-14T08:36:27.149Z,125.80
2018-09-14T08:38:55.357Z,137.53
2018-09-14T08:41:23.627Z,119.67
2018-09-14T08:43:51.850Z,131.50
2018-09-14T08:46:20.046Z,139.63
2018-09-14T08:48:48.290Z,139.33
2018-09-14T08:51:16.801Z,131.70
2018-09-14T08:53:45.158Z,134.17
2018-09-14T08:56:13.293Z,138.30
2018-09-14T08:58:41.506Z,146.43
2018-09-14T09:01:09.701Z,124.80
2018-09-14T09:03:37.918Z,125.37
2018-09-14T09:06:06.197Z,115.27
2018-09-14T09:08:34.406Z,105.77
2018-09-14T09:11:02.625Z,98.03
2018-09-14T09:13:30.838Z,126.67
2018-09-14T09:15:59.058Z,115.73
2018-09-14T09:18:27.278Z,117.80
2018-09-14T09:20:55.517Z,107.80
2018-09-14T09:23:23.801Z,106.00
2018-09-14T09:25:51.957Z,86.57
2018-09-14T09:28:20.165Z,94.60
2018-09-14T09:30:48.458Z,91.53
2018-09-14T09:33:16.683Z,93.60
2018-09-14T09:35:44.902Z,108.07
2018-09-14T09:38:13.138Z,87.87
2018-09-14T09:40:41.426Z,80.40
2018-09-14T09:43:09.748Z,85.43
2018-09-14T09:45:37.947Z,99.73
2018-09-14T09:48:06.265Z,91.80
2018-09-14T09:50:34.503Z,79.83
2018-09-14T09:53:02.821Z,72.37
2018-09-14T09:55:31.065Z,69.83
2018-09-14T09:57:59.501Z,83.07
2018-09-14T10:00:33.034Z,75.07
2018-09-14T10:03:06.535Z,78.10
2018-09-14T10:05:40.015Z,80.63
2018-09-14T10:08:08.270Z,95.67
2018-09-14T10:10:36.518Z,93.93
2018-09-14T10:13:04.783Z,95.67
2018-09-14T10:15:33.003Z,99.47
2018-09-14T10:18:01.247Z,84.37
2018-09-14T10:20:29.473Z,93.73
2018-09-14T10:22:57.701Z,93.73
2018-09-14T10:25:26.052Z,102.37
2018-09-14T10:27:54.284Z,111.07
2018-09-14T10:30:22.559Z,111.13
2018-09-14T10:32:50.779Z,90.63
2018-09-14T10:35:19.014Z,102.30
2018-09-14T10:37:47.227Z,93.83
2018-09-14T10:40:15.468Z,113.97
2018-09-14T10:42:43.760Z,99.70
2018-09-14T10:45:12.018Z,120.50
2018-09-14T10:47:40.299Z,118.90
2018-09-14T10:50:08.585Z,115.03
2018-09-14T10:52:36.770Z,109.43
2018-09-14T10:55:05.026Z,136.40
2018-09-14T10:57:33.250Z,91.13
2018-09-14T11:00:01.487Z,77.30
2018-09-14T11:02:29.705Z,91.50
2018-09-14T11:04:57.954Z,85.40
2018-09-14T11:07:26.254Z,71.97
2018-09-14T11:09:54.486Z,67.80
2018-09-14T11:12:22.732Z,68.00
2018-09-14T11:14:50.963Z,58.70
2018-09-14T11:17:19.177Z,62.63
2018-09-14T11:19:47.422Z,55.20
2018-09-14T11:22:15.717Z,61.50
2018-09-14T11:24:44.185Z,65.83
2018-09-14T11:27:12.301Z,57.10
2018-09-14T11:29:40.587Z,55.50
2018-09-14T11:32:08.831Z,62.30
2018-09-14T11:34:37.069Z,62.53
2018-09-14T11:37:05.647Z,58.40
2018-09-14T11:39:33.818Z,66.63
2018-09-14T11:42:02.050Z,55.87
2018-09-14T11:44:30.396Z,59.57
2018-09-14T11:46:58.529Z,54.43
2018-09-14T11:49:26.759Z,50.67
2018-09-14T11:51:54.974Z,52.20
2018-09-14T11:54:23.265Z,57.53
2018-09-14T11:56:51.424Z,51.23
2018-09-14T11:59:19.685Z,53.00
2018-09-14T12:01:47.924Z,47.10
2018-09-14T12:04:16.219Z,52.83
2018-09-14T12:06:44.381Z,62.37
2018-09-14T12:09:12.953Z,66.43
2018-09-14T12:11:41.723Z,52.53
2018-09-14T12:14:10.283Z,53.83
2018-09-14T12:16:38.470Z,55.47
2018-09-14T12:19:06.813Z,61.30
2018-09-14T12:21:35.018Z,54.80
2018-09-14T12:24:03.222Z,58.73
2018-09-14T12:26:31.433Z,51.23
2018-09-14T12:28:59.660Z,53.03
2018-09-14T12:31:27.879Z,54.73
2018-09-14T12:33:56.114Z,52.00
2018-09-14T12:36:24.373Z,54.83
2018-09-14T12:38:52.593Z,49.83
2018-09-14T12:41:20.858Z,57.33
2018-09-14T12:43:49.096Z,57.10
2018-09-14T12:46:17.287Z,47.00
2018-09-14T12:48:45.526Z,47.93
2018-09-14T12:51:13.762Z,53.33
2018-09-14T12:53:42.115Z,66.23
2018-09-14T12:56:10.435Z,52.67
2018-09-14T12:58:38.637Z,53.90
2018-09-14T13:01:06.869Z,56.30
2018-09-14T13:03:37.452Z,56.50
2018-09-14T13:06:05.650Z,52.30
2018-09-14T13:08:33.877Z,52.63
2018-09-14T13:11:02.085Z,49.77
2018-09-14T13:13:30.301Z,48.93
2018-09-14T13:15:58.505Z,49.30
2018-09-14T13:18:26.745Z,52.97
2018-09-14T13:20:54.949Z,38.27
2018-09-14T13:23:23.165Z,41.70
2018-09-14T13:25:51.373Z,47.97
2018-09-14T13:28:19.625Z,40.83
2018-09-14T13:30:47.831Z,44.30
2018-09-14T13:33:16.046Z,58.10
2018-09-14T13:35:44.258Z,39.10
2018-09-14T13:38:12.464Z,38.03
2018-09-14T13:40:40.678Z,41.40
2018-09-14T13:43:08.889Z,36.77
2018-09-14T13:45:37.109Z,36.60
2018-09-14T13:48:05.310Z,32.23
2018-09-14T13:50:33.537Z,37.03
2018-09-14T13:53:01.790Z,32.73
2018-09-14T13:55:30.014Z,30.00
2018-09-14T13:57:58.346Z,25.87
2018-09-14T14:00:26.546Z,33.43
2018-09-14T14:02:54.801Z,42.53
2018-09-14T14:05:23.102Z,33.53
2018-09-14T14:07:51.305Z,40.97
2018-09-14T14:10:19.605Z,36.07
2018-09-14T14:12:47.783Z,40.20
2018-09-14T14:15:16.023Z,31.73
2018-09-14T14:17:44.302Z,42.13
2018-09-14T14:20:12.649Z,36.27
2018-09-14T14:22:40.850Z,42.30
2018-09-14T14:25:09.204Z,52.53
2018-09-14T14:27:37.412Z,41.80
2018-09-14T14:30:05.626Z,60.57
2018-09-14T14:32:33.826Z,45.03
2018-09-14T14:35:02.034Z,53.47
2018-09-14T14:37:30.353Z,70.07
2018-09-14T14:39:58.639Z,62.20
2018-09-14T14:42:26.855Z,65.53
2018-09-14T14:44:55.275Z,62.20
2018-09-14T14:47:23.501Z,64.27
2018-09-14T14:49:51.753Z,65.17
2018-09-14T14:52:20.043Z,77.07
2018-09-14T14:54:48.276Z,66.13
2018-09-14T14:57:16.517Z,69.23
2018-09-14T14:59:44.757Z,69.17
2018-09-14T15:02:12.925Z,58.53
2018-09-14T15:04:41.149Z,59.37
2018-09-14T15:07:09.445Z,65.00
2018-09-14T15:09:37.662Z,54.53
2018-09-14T15:12:05.877Z,60.60
2018-09-14T15:14:34.181Z,64.07
2018-09-14T15:17:02.381Z,70.17
2018-09-14T15:19:30.659Z,55.67
2018-09-14T15:21:58.857Z,51.23
2018-09-14T15:24:27.070Z,60.40
2018-09-14T15:26:55.302Z,61.27
2018-09-14T15:29:23.506Z,58.50
2018-09-14T15:31:51.733Z,64.53
2018-09-14T15:34:20.094Z,54.33
2018-09-14T15:36:48.309Z,59.73
2018-09-14T15:39:16.551Z,73.70
2018-09-14T15:41:44.737Z,63.23
2018-09-14T15:44:12.973Z,55.90
2018-09-14T15:46:42.966Z,57.43
2018-09-14T15:49:11.177Z,53.83
2018-09-14T15:51:39.423Z,54.67
2018-09-14T15:54:07.833Z,82.47
2018-09-14T15:56:36.030Z,56.23
2018-09-14T15:59:04.351Z,76.37
2018-09-14T16:01:32.550Z,51.50
2018-09-14T16:04:00.771Z,51.33
2018-09-14T16:06:28.989Z,44.67
2018-09-14T16:08:57.230Z,46.97
2018-09-14T16:11:25.602Z,49.73
2018-09-14T16:13:53.882Z,50.93
2018-09-14T16:16:22.089Z,50.33
2018-09-14T16:18:50.339Z,44.93
2018-09-14T16:21:18.505Z,49.13
2018-09-14T16:23:46.773Z,44.10
2018-09-14T16:26:15.069Z,46.27
2018-09-14T16:28:43.309Z,40.97
2018-09-14T16:31:11.502Z,53.13
2018-09-14T16:33:39.758Z,40.47
2018-09-14T16:36:07.951Z,43.33
2018-09-14T16:38:39.058Z,48.43
2018-09-14T16:41:07.391Z,37.77
2018-09-14T16:43:35.595Z,46.50
2018-09-14T16:46:03.918Z,39.80
2018-09-14T16:48:32.161Z,43.17
2018-09-14T16:51:00.461Z,48.70
2018-09-14T16:53:28.733Z,43.50
2018-09-14T16:55:56.937Z,51.60
2018-09-14T16:58:25.149Z,41.87
2018-09-14T17:00:53.437Z,50.63
2018-09-14T17:03:21.699Z,51.13
2018-09-14T17:05:49.841Z,47.30
2018-09-14T17:08:18.127Z,45.27
2018-09-14T17:10:46.366Z,54.43
2018-09-14T17:13:14.569Z,41.17
2018-09-14T17:15:42.765Z,39.30
2018-09-14T17:18:10.970Z,41.77
2018-09-14T17:20:39.166Z,39.33
2018-09-14T17:23:12.365Z,37.90
2018-09-14T17:25:55.586Z,49.67
2018-09-14T17:28:23.926Z,46.50
2018-09-14T17:30:52.124Z,41.63
2018-09-14T17:33:20.345Z,47.93
2018-09-14T17:35:48.537Z,40.37
2018-09-14T17:38:16.809Z,43.10
2018-09-14T17:41:28.194Z,40.50
2018-09-14T17:43:56.585Z,39.43
2018-09-14T17:46:24.826Z,40.67
2018-09-14T17:48:53.030Z,52.50
2018-09-14T17:51:21.256Z,40.03
2018-09-14T17:53:49.493Z,43.53
2018-09-14T17:56:17.734Z,44.07
2018-09-14T17:58:46.009Z,42.30
2018-09-14T18:01:14.228Z,45.03
2018-09-14T18:03:42.447Z,50.53
2018-09-14T18:06:10.641Z,46.60
2018-09-14T18:08:38.842Z,54.57
2018-09-14T18:11:07.109Z,52.77
2018-09-14T18:13:35.347Z,46.37
2018-09-14T18:16:03.627Z,41.63
2018-09-14T18:18:31.925Z,46.90
2018-09-14T18:21:00.157Z,41.77
2018-09-14T18:23:28.385Z,38.37
2018-09-14T18:25:56.590Z,32.03
2018-09-14T18:28:24.810Z,32.73
2018-09-14T18:30:53.022Z,30.03
2018-09-14T18:33:21.237Z,33.53
2018-09-14T18:35:49.440Z,27.10
2018-09-14T18:38:17.661Z,30.03
2018-09-14T18:40:45.845Z,30.93
2018-09-14T18:43:14.116Z,39.37
2018-09-14T18:45:42.321Z,28.60
2018-09-14T18:48:10.551Z,30.87
2018-09-14T18:50:38.906Z,28.80
2018-09-14T18:53:07.225Z,57.97
2018-09-14T18:55:35.466Z,35.80
2018-09-14T18:58:03.735Z,27.80
2018-09-14T19:00:32.030Z,34.47
2018-09-14T19:03:00.352Z,27.00
2018-09-14T19:05:28.585Z,40.73
2018-09-14T19:07:56.858Z,32.67
2018-09-14T19:10:25.287Z,30.00
2018-09-14T19:12:53.582Z,32.30
2018-09-14T19:15:21.933Z,27.40
2018-09-14T19:17:50.386Z,28.93
2018-09-14T19:20:18.610Z,33.80
2018-09-14T19:22:46.997Z,28.57
2018-09-14T19:25:15.300Z,27.37
2018-09-14T19:27:43.578Z,34.67
2018-09-14T19:30:12.030Z,30.30
2018-09-14T19:32:40.277Z,28.03
2018-09-14T19:35:08.573Z,24.43
2018-09-14T19:37:36.786Z,27.03
2018-09-14T19:40:05.040Z,34.23
2018-09-14T19:42:33.366Z,32.30
2018-09-14T19:45:01.570Z,32.43
2018-09-14T19:47:29.793Z,32.37
2018-09-14T19:49:58.132Z,31.33
2018-09-14T19:52:26.369Z,29.53
2018-09-14T19:54:54.754Z,34.60
2018-09-14T19:57:23.109Z,39.00
2018-09-14T19:59:51.609Z,32.70
2018-09-14T20:02:19.845Z,38.13
2018-09-14T20:04:48.247Z,36.13
2018-09-14T20:07:16.534Z,42.83
2018-09-14T20:09:44.789Z,33.70
2018-09-14T20:12:13.102Z,34.07
2018-09-14T20:14:41.377Z,41.50
2018-09-14T20:17:09.734Z,47.87
2018-09-14T20:19:37.960Z,36.73
2018-09-14T20:22:06.674Z,40.80
2018-09-14T20:24:34.958Z,38.80
2018-09-14T20:27:03.257Z,36.60
2018-09-14T20:29:31.511Z,36.50
2018-09-14T20:31:59.821Z,37.80
2018-09-14T20:34:28.137Z,46.80
2018-09-14T20:36:56.425Z,36.03
2018-09-14T20:39:24.706Z,35.97
2018-09-14T20:41:52.953Z,37.43
2018-09-14T20:44:21.298Z,37.50
2018-09-14T20:46:49.653Z,37.37
2018-09-14T20:49:17.866Z,40.13
2018-09-14T20:51:46.224Z,29.23
2018-09-14T20:54:14.313Z,38.80
2018-09-14T20:56:42.555Z,37.93
2018-09-14T20:59:10.786Z,34.00
2018-09-14T21:01:39.101Z,37.37
2018-09-14T21:04:07.612Z,29.47
2018-09-14T21:06:35.809Z,36.40
2018-09-14T21:09:05.506Z,42.70
2018-09-14T21:11:33.829Z,36.00
2018-09-14T21:14:02.021Z,33.60
2018-09-14T21:16:30.270Z,27.37
2018-09-14T21:18:58.496Z,35.90
2018-09-14T21:21:26.757Z,41.07
2018-09-14T21:23:55.063Z,43.63
2018-09-14T21:26:23.353Z,36.57
2018-09-14T21:28:51.641Z,34.30
2018-09-14T21:31:19.986Z,33.07
2018-09-14T21:33:48.179Z,58.97
2018-09-14T21:36:16.507Z,72.27
2018-09-14T21:38:44.777Z,153.03
2018-09-14T21:41:13.039Z,173.43
2018-09-14T21:43:41.333Z,98.60
2018-09-14T21:46:09.610Z,103.37
2018-09-14T21:48:37.925Z,78.80
2018-09-14T21:51:06.386Z,75.23
2018-09-14T21:53:34.745Z,63.77
2018-09-14T21:56:02.918Z,53.20
2018-09-14T21:58:31.169Z,48.77
2018-09-14T22:01:04.898Z,49.60
2018-09-14T22:03:33.177Z,39.30
2018-09-14T22:06:01.456Z,34.80
2018-09-14T22:08:29.745Z,53.60
2018-09-14T22:10:58.027Z,34.77
2018-09-14T22:13:26.389Z,39.53
2018-09-14T22:15:54.610Z,35.90
2018-09-14T22:18:22.921Z,38.13
2018-09-14T22:20:51.241Z,35.60
2018-09-14T22:23:19.508Z,32.40
2018-09-14T22:25:47.781Z,32.87
2018-09-14T22:28:16.080Z,34.00
2018-09-14T22:30:44.344Z,35.70
2018-09-14T22:33:12.633Z,37.83
2018-09-14T22:35:40.929Z,34.90
2018-09-14T22:38:09.138Z,45.53
2018-09-14T22:40:37.336Z,34.77
2018-09-14T22:43:05.622Z,42.30
2018-09-14T22:48:12.533Z,37.23
2018-09-14T22:50:40.821Z,54.57
2018-09-14T22:53:09.085Z,30.00
2018-09-14T22:55:37.370Z,41.33
2018-09-14T22:58:07.263Z,34.13
2018-09-14T23:00:40.962Z,34.43
2018-09-14T23:03:09.238Z,33.20
2018-09-14T23:05:37.493Z,37.90
2018-09-14T23:08:05.845Z,35.57
2018-09-14T23:10:34.087Z,30.90
2018-09-14T23:13:02.400Z,34.50
2018-09-14T23:15:30.665Z,46.43
2018-09-14T23:17:59.120Z,35.07
2018-09-14T23:20:27.318Z,34.67
2018-09-14T23:22:55.629Z,37.40
2018-09-14T23:25:23.917Z,34.67
2018-09-14T23:27:52.441Z,30.50
2018-09-14T23:30:20.682Z,30.60
2018-09-14T23:32:48.997Z,33.30
2018-09-14T23:35:17.254Z,33.90
2018-09-14T23:37:45.560Z,31.07
2018-09-14T23:40:13.840Z,31.27
2018-09-14T23:42:42.151Z,33.57
2018-09-14T23:45:10.429Z,34.17
2018-09-14T23:47:38.713Z,34.50
2018-09-14T23:50:06.925Z,30.10
2018-09-14T23:52:35.166Z,31.97
2018-09-14T23:55:03.597Z,29.50
2018-09-14T23:57:31.846Z,27.60
